createdAt,value
2023-05-22T00:03:00.660Z,6.70
2023-05-22T00:08:11.751Z,7.20
2023-05-22T00:13:17.240Z,6.60
2023-05-22T00:18:23.222Z,6.20
2023-05-22T00:23:29.965Z,6.20
2023-05-22T00:28:35.654Z,6.30
2023-05-22T00:33:41.168Z,6.10
2023-05-22T00:38:48.475Z,6.50
2023-05-22T00:43:54.817Z,5.80
2023-05-22T00:49:00.285Z,6.00
2023-05-22T00:54:06.717Z,6.10
2023-05-22T00:59:12.607Z,6.10
2023-05-22T01:04:18.636Z,6.50
2023-05-22T01:09:24.713Z,6.30
2023-05-22T01:14:40.404Z,6.50
2023-05-22T01:20:07.702Z,6.80
2023-05-22T01:25:32.499Z,6.20
2023-05-22T01:30:48.079Z,6.50
2023-05-22T01:35:57.617Z,6.70
2023-05-22T01:41:04.365Z,6.60
2023-05-22T01:46:09.870Z,6.20
2023-05-22T01:51:22.142Z,6.20
2023-05-22T01:56:34.873Z,5.60
2023-05-22T02:01:41.506Z,6.60
2023-05-22T02:06:48.463Z,7.00
2023-05-22T02:11:53.969Z,7.10
2023-05-22T02:17:02.204Z,7.00
2023-05-22T02:22:09.997Z,7.60
2023-05-22T02:27:16.865Z,7.20
2023-05-22T02:32:22.527Z,7.60
2023-05-22T02:37:28.125Z,7.80
2023-05-22T02:42:34.669Z,8.30
2023-05-22T02:47:40.593Z,7.30
2023-05-22T02:52:46.410Z,7.30
2023-05-22T02:57:51.899Z,6.50
2023-05-22T03:02:57.566Z,7.50
2023-05-22T03:08:03.333Z,7.60
2023-05-22T03:13:08.974Z,7.40
2023-05-22T03:18:14.570Z,7.50
2023-05-22T03:23:21.261Z,6.80
2023-05-22T03:28:26.912Z,6.70
2023-05-22T03:33:32.376Z,7.40
2023-05-22T03:38:38.823Z,8.70
2023-05-22T03:43:45.705Z,9.80
2023-05-22T03:48:51.461Z,9.70
2023-05-22T03:53:57.218Z,8.60
2023-05-22T03:59:03.253Z,8.90
2023-05-22T04:04:09.658Z,9.20
2023-05-22T04:09:16.370Z,8.50
2023-05-22T04:14:22.257Z,9.10
2023-05-22T04:19:28.331Z,9.30
2023-05-22T04:24:34.019Z,8.70
2023-05-22T04:29:41.551Z,7.30
2023-05-22T04:34:51.225Z,6.50
2023-05-22T04:39:58.379Z,5.90
2023-05-22T04:45:04.100Z,5.90
2023-05-22T04:50:10.905Z,6.00
2023-05-22T04:55:16.975Z,5.70
2023-05-22T05:00:26.675Z,4.60
2023-05-22T05:05:33.006Z,4.60
2023-05-22T05:10:38.779Z,3.70
2023-05-22T05:15:44.845Z,3.40
2023-05-22T05:20:51.939Z,3.20
2023-05-22T05:25:58.474Z,2.70
2023-05-22T05:31:05.090Z,2.50
2023-05-22T05:36:31.706Z,2.10
2023-05-22T05:41:37.484Z,2.40
2023-05-22T05:46:47.197Z,2.00
2023-05-22T05:51:55.540Z,2.20
2023-05-22T05:57:04.264Z,2.10
2023-05-22T06:02:09.967Z,2.00
2023-05-22T06:07:16.374Z,2.10
2023-05-22T06:12:27.810Z,2.00
2023-05-22T06:17:33.939Z,1.90
2023-05-22T06:22:40.478Z,2.20
2023-05-22T06:27:47.514Z,2.00
2023-05-22T06:32:55.479Z,1.80
2023-05-22T06:38:02.131Z,1.70
2023-05-22T06:43:07.844Z,1.70
2023-05-22T06:48:22.893Z,2.00
2023-05-22T06:53:42.042Z,1.70
2023-05-22T06:58:57.338Z,1.60
2023-05-22T07:04:11.437Z,1.60
2023-05-22T07:09:32.571Z,1.50
2023-05-22T07:14:38.258Z,1.80
2023-05-22T07:19:44.352Z,1.90
2023-05-22T07:24:50.851Z,1.90
2023-05-22T07:29:57.212Z,1.70
2023-05-22T07:35:03.199Z,1.50
2023-05-22T07:40:11.596Z,1.50
2023-05-22T07:45:17.486Z,1.20
2023-05-22T07:50:26.847Z,1.30
2023-05-22T07:55:33.043Z,1.40
2023-05-22T08:00:39.430Z,1.10
2023-05-22T08:11:03.132Z,1.30
2023-05-22T08:16:11.206Z,1.00
2023-05-22T08:26:23.273Z,1.10
2023-05-22T08:31:29.549Z,1.10
2023-05-22T08:36:35.865Z,1.40
2023-05-22T08:41:43.804Z,1.40
2023-05-22T08:46:51.055Z,1.50
2023-05-22T08:52:03.205Z,1.40
2023-05-22T08:57:09.390Z,1.50
2023-05-22T09:02:16.611Z,1.60
2023-05-22T09:07:24.858Z,1.40
2023-05-22T09:12:31.778Z,1.50
2023-05-22T09:17:41.399Z,1.60
2023-05-22T09:22:49.164Z,1.60
2023-05-22T09:27:55.488Z,1.70
2023-05-22T09:33:01.326Z,1.60
2023-05-22T09:38:10.185Z,1.60
2023-05-22T09:43:21.581Z,1.80
2023-05-22T09:48:28.446Z,1.30
2023-05-22T09:53:35.078Z,1.50
2023-05-22T09:58:45.497Z,1.60
2023-05-22T10:03:56.490Z,1.40
2023-05-22T10:09:09.223Z,1.60
2023-05-22T10:14:15.948Z,1.40
2023-05-22T10:19:27.449Z,1.50
2023-05-22T10:24:34.867Z,1.40
2023-05-22T10:29:47.817Z,1.70
2023-05-22T10:35:04.896Z,1.60
2023-05-22T10:40:13.949Z,1.70
2023-05-22T10:45:20.111Z,1.80
2023-05-22T10:50:26.286Z,1.70
2023-05-22T10:55:32.315Z,1.80
2023-05-22T11:00:39.682Z,1.70
2023-05-22T11:05:54.579Z,1.70
2023-05-22T11:11:12.212Z,1.50
2023-05-22T11:16:19.163Z,1.40
2023-05-22T11:21:25.856Z,1.60
2023-05-22T11:26:33.674Z,1.30
2023-05-22T11:31:46.620Z,1.60
2023-05-22T11:36:57.658Z,1.10
2023-05-22T11:42:07.133Z,1.40
2023-05-22T11:52:20.173Z,1.50
2023-05-22T11:57:26.961Z,1.60
2023-05-22T12:02:33.425Z,1.40
2023-05-22T12:07:39.570Z,1.40
2023-05-22T12:12:45.952Z,1.60
2023-05-22T12:17:56.740Z,1.60
2023-05-22T12:23:02.786Z,1.50
2023-05-22T12:28:08.718Z,1.80
2023-05-22T12:33:17.491Z,1.70
2023-05-22T12:38:27.363Z,2.00
2023-05-22T12:43:32.834Z,1.60
2023-05-22T12:48:38.351Z,1.90
2023-05-22T12:53:43.813Z,1.70
2023-05-22T12:58:49.279Z,2.00
2023-05-22T13:03:55.246Z,1.70
2023-05-22T13:09:00.964Z,1.60
2023-05-22T13:14:06.743Z,1.50
2023-05-22T13:19:12.232Z,1.50
2023-05-22T13:24:17.704Z,1.90
2023-05-22T13:29:23.233Z,1.40
2023-05-22T13:34:29.313Z,1.50
2023-05-22T13:39:35.343Z,1.60
2023-05-22T13:44:40.834Z,1.80
2023-05-22T13:49:46.660Z,1.60
2023-05-22T13:54:52.101Z,1.60
2023-05-22T13:59:57.621Z,1.90
2023-05-22T14:05:03.178Z,1.90
2023-05-22T14:10:10.632Z,1.60
2023-05-22T14:15:17.732Z,2.00
2023-05-22T14:20:23.346Z,1.80
2023-05-22T14:25:28.814Z,1.80
2023-05-22T14:30:34.274Z,1.90
2023-05-22T14:35:40.124Z,1.90
2023-05-22T14:40:46.071Z,1.70
2023-05-22T14:45:51.613Z,1.80
2023-05-22T14:50:57.402Z,2.10
2023-05-22T14:56:03.393Z,1.90
2023-05-22T15:01:08.874Z,1.70
2023-05-22T15:06:14.486Z,1.60
2023-05-22T15:11:19.882Z,1.60
2023-05-22T15:16:26.114Z,1.90
2023-05-22T15:21:31.671Z,2.00
2023-05-22T15:26:37.302Z,2.10
2023-05-22T15:31:42.833Z,1.90
2023-05-22T15:36:48.431Z,1.70
2023-05-22T15:42:05.215Z,1.70
2023-05-22T15:47:16.936Z,2.60
2023-05-22T15:52:24.643Z,1.90
2023-05-22T15:57:30.190Z,2.70
2023-05-22T16:02:36.440Z,2.30
2023-05-22T16:07:42.280Z,1.60
2023-05-22T16:12:47.890Z,2.70
2023-05-22T16:17:54.579Z,2.10
2023-05-22T16:23:00.346Z,1.90
2023-05-22T16:28:05.867Z,2.10
2023-05-22T16:33:12.305Z,2.00
2023-05-22T16:38:17.834Z,1.70
2023-05-22T16:43:23.325Z,2.30
2023-05-22T16:48:28.970Z,2.10
2023-05-22T16:53:36.139Z,2.20
2023-05-22T16:58:44.004Z,2.30
2023-05-22T17:03:49.726Z,1.90
2023-05-22T17:08:56.062Z,2.30
2023-05-22T17:14:02.110Z,1.90
2023-05-22T17:19:07.542Z,2.40
2023-05-22T17:24:14.876Z,2.40
2023-05-22T17:29:20.835Z,2.30
2023-05-22T17:34:26.423Z,2.40
2023-05-22T17:39:32.039Z,2.20
2023-05-22T17:44:37.396Z,2.40
2023-05-22T17:49:43.069Z,2.30
2023-05-22T17:54:49.933Z,3.60
2023-05-22T17:59:55.318Z,2.70
2023-05-22T18:05:01.237Z,2.40
2023-05-22T18:10:08.605Z,2.60
2023-05-22T18:15:14.304Z,2.70
2023-05-22T18:20:20.129Z,2.50
2023-05-22T18:25:25.815Z,2.50
2023-05-22T18:30:32.345Z,2.50
2023-05-22T18:35:38.176Z,2.90
2023-05-22T18:40:44.797Z,3.20
2023-05-22T18:45:50.935Z,4.60
2023-05-22T18:50:57.856Z,4.10
2023-05-22T18:56:03.490Z,4.60
2023-05-22T19:01:10.426Z,4.40
2023-05-22T19:06:16.199Z,4.60
2023-05-22T19:11:23.906Z,5.40
2023-05-22T19:16:30.615Z,5.50
2023-05-22T19:21:35.966Z,5.10
2023-05-22T19:26:42.026Z,5.30
2023-05-22T19:31:47.548Z,5.20
2023-05-22T19:36:57.586Z,5.00
2023-05-22T19:42:03.294Z,4.80
2023-05-22T19:47:10.790Z,4.70
2023-05-22T19:52:17.679Z,4.80
2023-05-22T19:57:23.234Z,4.60
2023-05-22T20:02:28.834Z,4.50
2023-05-22T20:07:34.594Z,5.80
2023-05-22T20:12:40.183Z,9.10
2023-05-22T20:17:51.924Z,7.00
2023-05-22T20:22:59.180Z,9.50
2023-05-22T20:28:05.683Z,7.40
2023-05-22T20:33:11.910Z,10.80
2023-05-22T20:38:19.051Z,6.50
2023-05-22T20:43:26.177Z,7.20
2023-05-22T20:48:31.749Z,8.20
2023-05-22T20:53:37.245Z,9.00
2023-05-22T20:58:42.805Z,9.30
2023-05-22T21:03:50.070Z,9.00
2023-05-22T21:08:59.753Z,8.70
2023-05-22T21:14:05.330Z,8.80
2023-05-22T21:19:10.802Z,8.10
2023-05-22T21:24:16.192Z,7.60
2023-05-22T21:29:21.610Z,7.70
2023-05-22T21:34:26.934Z,8.60
2023-05-22T21:39:32.437Z,10.90
2023-05-22T21:44:37.911Z,11.00
2023-05-22T21:49:43.315Z,9.10
2023-05-22T21:54:48.744Z,9.80
2023-05-22T21:59:54.266Z,9.90
2023-05-22T22:04:59.686Z,10.30
2023-05-22T22:10:06.080Z,10.50
2023-05-22T22:15:14.143Z,10.90
2023-05-22T22:20:30.314Z,11.70
2023-05-22T22:25:39.947Z,13.70
2023-05-22T22:30:45.654Z,11.00
2023-05-22T22:35:51.428Z,11.70
2023-05-22T22:40:56.865Z,14.00
2023-05-22T22:46:02.250Z,13.00
2023-05-22T22:51:07.747Z,13.50
2023-05-22T22:56:13.341Z,17.10
2023-05-22T23:01:18.708Z,33.60
2023-05-22T23:06:24.308Z,40.30
2023-05-22T23:11:37.296Z,27.60
2023-05-22T23:16:42.881Z,18.50
2023-05-22T23:21:48.605Z,25.50
2023-05-22T23:26:53.962Z,29.70
2023-05-22T23:31:59.649Z,43.60
2023-05-22T23:37:05.411Z,69.70
2023-05-22T23:42:11.979Z,36.20
2023-05-22T23:47:18.745Z,26.30
2023-05-22T23:52:24.190Z,19.70
2023-05-22T23:57:29.542Z,13.70
